Time;durP1;ratioP1;P1;durP2;ratioP2;P2;SDS_P1;SDS_P2;PMS_P1;PMS_P2;Temp;Humidity;BMP_temperature;BMP_pressure;BME280_temperature;BME280_humidity;BME280_pressure;Samples;Min_cycle;Max_cycle;Signal;HPM_P1;HPM_P2
2022/09/16 00:02:25;;;;;;;6.43;1.70;;;15.10;77.30;;;;;;6105343;23;20076;-90
2022/09/16 00:04:52;;;;;;;4.40;1.13;;;15.00;77.30;;;;;;6103664;23;20456;-91
2022/09/16 00:07:19;;;;;;;6.45;1.40;;;15.10;77.40;;;;;;6104217;23;20076;-90
2022/09/16 00:09:44;;;;;;;4.93;1.25;;;15.10;77.40;;;;;;6128497;23;20038;-89
2022/09/16 00:12:10;;;;;;;3.75;1.05;;;15.10;77.40;;;;;;6103621;23;20017;-89
2022/09/16 00:14:36;;;;;;;4.93;1.27;;;15.10;77.50;;;;;;6104170;23;20445;-90
2022/09/16 00:17:02;;;;;;;5.40;1.48;;;15.10;77.60;;;;;;6103265;23;20018;-90
2022/09/16 00:19:27;;;;;;;8.07;1.73;;;15.10;77.60;;;;;;6128474;23;20524;-89
2022/09/16 00:21:53;;;;;;;6.47;1.40;;;15.10;77.70;;;;;;6128462;23;20049;-91
2022/09/16 00:24:18;;;;;;;4.50;1.40;;;15.10;77.80;;;;;;6104430;23;20453;-91
2022/09/16 00:26:44;;;;;;;3.20;1.40;;;15.10;77.80;;;;;;6103954;23;20044;-91
2022/09/16 00:29:10;;;;;;;4.43;1.35;;;15.10;77.70;;;;;;6128673;23;20515;-92
2022/09/16 00:31:35;;;;;;;4.60;1.50;;;15.10;77.70;;;;;;6128770;23;20020;-90
2022/09/16 00:34:01;;;;;;;4.97;1.38;;;15.20;77.80;;;;;;6104239;23;20049;-90
2022/09/16 00:36:27;;;;;;;4.10;1.63;;;15.20;77.70;;;;;;6103879;23;20025;-90
2022/09/16 00:38:53;;;;;;;7.13;1.50;;;15.20;77.60;;;;;;6128711;23;20030;-91
2022/09/16 00:41:26;;;;;;;6.18;1.70;;;15.20;77.60;;;;;;6104418;23;20530;-90
2022/09/16 00:44:00;;;;;;;6.50;1.40;;;15.20;77.50;;;;;;6128981;23;20029;-91
2022/09/16 00:46:37;;;;;;;3.03;1.40;;;15.10;77.40;;;;;;6128003;23;20445;-90
2022/09/16 00:49:12;;;;;;;5.47;1.45;;;15.10;77.40;;;;;;6128978;23;20025;-90
2022/09/16 00:51:39;;;;;;;5.18;1.42;;;15.00;77.60;;;;;;6128666;23;20018;-91
2022/09/16 00:54:08;;;;;;;6.85;1.30;;;15.10;77.60;;;;;;6103590;23;20045;-89
2022/09/16 00:56:38;;;;;;;6.38;1.52;;;15.10;77.70;;;;;;6103212;23;20381;-89
2022/09/16 00:59:31;;;;;;;4.72;1.38;;;15.10;77.80;;;;;;6127675;23;20025;-91
2022/09/16 01:02:01;;;;;;;9.93;1.60;;;15.00;78.10;;;;;;6116813;23;20018;-90
2022/09/16 01:04:33;;;;;;;6.07;1.20;;;15.10;77.80;;;;;;6127987;23;20009;-90
2022/09/16 01:06:59;;;;;;;4.13;1.20;;;15.10;78.00;;;;;;6127730;23;20063;-90
2022/09/16 01:09:26;;;;;;;2.53;1.10;;;15.10;78.00;;;;;;6128340;23;20024;-89
2022/09/16 01:11:52;;;;;;;5.68;1.17;;;15.10;78.10;;;;;;6103064;23;20021;-90
2022/09/16 01:17:28;;;;;;;3.53;1.10;;;15.10;78.00;;;;;;6127484;23;20445;-90
2022/09/16 01:20:18;;;;;;;3.00;0.73;;;15.10;77.90;;;;;;6127793;23;20024;-90
2022/09/16 01:22:44;;;;;;;3.53;1.10;;;15.10;77.80;;;;;;6127563;23;20021;-90
2022/09/16 01:25:29;;;;;;;7.07;1.10;;;15.20;77.40;;;;;;6103123;23;20088;-90
2022/09/16 01:28:25;;;;;;;6.10;1.00;;;15.10;77.60;;;;;;6127543;23;20033;-90
2022/09/16 01:31:11;;;;;;;3.45;0.90;;;15.10;77.60;;;;;;6128176;23;20092;-89
2022/09/16 01:33:48;;;;;;;2.28;0.95;;;15.10;77.40;;;;;;6126792;23;20013;-89
2022/09/16 01:36:29;;;;;;;2.60;1.00;;;15.00;77.70;;;;;;6127435;23;20093;-89
2022/09/16 01:39:16;;;;;;;5.70;1.88;;;15.00;77.80;;;;;;6127494;23;20032;-92
2022/09/16 01:42:03;;;;;;;3.70;0.88;;;15.00;77.80;;;;;;6127369;23;20044;-91
2022/09/16 01:45:14;;;;;;;4.05;1.30;;;14.90;77.90;;;;;;6102912;23;20022;-90
2022/09/16 01:47:59;;;;;;;3.60;1.10;;;14.90;77.90;;;;;;6103221;23;20518;-90
2022/09/16 01:50:47;;;;;;;5.85;1.20;;;15.00;77.50;;;;;;6102702;23;20014;-91
2022/09/16 01:53:30;;;;;;;3.20;1.10;;;14.90;77.80;;;;;;6102429;23;20430;-89
2022/09/16 01:55:57;;;;;;;4.15;1.25;;;15.00;77.90;;;;;;6103220;23;20548;-90
2022/09/16 01:58:40;;;;;;;5.10;1.10;;;15.10;77.60;;;;;;6127323;23;20516;-89
2022/09/16 02:01:15;;;;;;;5.07;1.55;;;15.00;77.90;;;;;;6127661;23;20022;-90
2022/09/16 02:03:46;;;;;;;5.85;1.45;;;15.10;77.80;;;;;;6127909;23;20025;-90
2022/09/16 02:06:21;;;;;;;5.75;1.20;;;15.10;77.80;;;;;;6127260;23;20021;-91
2022/09/16 02:08:57;;;;;;;7.68;1.20;;;15.10;77.90;;;;;;6102952;23;20392;-89
2022/09/16 02:11:24;;;;;;;5.35;1.42;;;15.10;77.90;;;;;;6127698;23;20022;-91
2022/09/16 02:13:55;;;;;;;5.13;1.42;;;15.20;77.70;;;;;;6127158;23;20042;-91
2022/09/16 02:16:44;;;;;;;6.82;1.45;;;15.20;77.80;;;;;;6103057;23;20073;-90
2022/09/16 02:19:15;;;;;;;4.25;0.80;;;15.00;78.00;;;;;;6127799;23;20045;-90
2022/09/16 02:21:41;;;;;;;5.43;1.40;;;15.10;77.70;;;;;;6102865;23;20014;-90
2022/09/16 02:24:15;;;;;;;5.18;1.33;;;15.10;77.60;;;;;;6127847;23;20021;-91
2022/09/16 02:26:47;;;;;;;3.95;1.27;;;15.00;77.80;;;;;;6103637;23;20397;-91
2022/09/16 02:29:18;;;;;;;2.90;1.00;;;15.00;77.60;;;;;;6128114;23;20029;-92
2022/09/16 02:31:45;;;;;;;3.00;1.17;;;15.00;77.60;;;;;;6103413;23;20017;-91
2022/09/16 02:34:27;;;;;;;3.72;1.17;;;15.00;77.50;;;;;;6128150;23;20104;-91
2022/09/16 02:36:57;;;;;;;4.55;1.25;;;15.00;77.70;;;;;;6103070;23;20021;-90
2022/09/16 02:39:31;;;;;;;3.90;1.30;;;15.00;77.40;;;;;;6104095;23;20157;-92
2022/09/16 02:41:58;;;;;;;5.07;1.42;;;15.00;77.50;;;;;;6103618;23;20017;-92
2022/09/16 02:44:24;;;;;;;9.25;1.20;;;15.00;77.40;;;;;;6103094;23;20053;-91
2022/09/16 02:47:00;;;;;;;6.80;2.08;;;15.00;77.40;;;;;;6103405;23;20017;-94
2022/09/16 02:49:54;;;;;;;4.32;1.23;;;14.90;77.30;;;;;;6103841;23;20057;-91
2022/09/16 02:52:36;;;;;;;4.25;1.40;;;14.90;77.60;;;;;;6094879;23;20024;-90
2022/09/16 02:55:21;;;;;;;2.88;1.05;;;14.90;77.40;;;;;;6102941;23;20057;-90
2022/09/16 02:57:48;;;;;;;4.60;1.35;;;14.90;77.50;;;;;;6097369;23;20413;-89
2022/09/16 03:00:14;;;;;;;2.50;1.27;;;14.90;77.50;;;;;;6123296;23;20323;-88
2022/09/16 03:02:40;;;;;;;4.90;1.20;;;14.90;77.60;;;;;;6121986;23;20028;-89
2022/09/16 03:05:08;;;;;;;4.45;1.50;;;14.90;77.90;;;;;;6122407;23;20068;-89
2022/09/16 03:07:34;;;;;;;4.65;1.75;;;14.80;78.00;;;;;;6097917;23;20014;-88
2022/09/16 03:10:00;;;;;;;4.20;1.55;;;14.80;78.20;;;;;;6121863;23;20025;-89
2022/09/16 03:12:49;;;;;;;7.03;1.63;;;14.80;78.40;;;;;;6122253;23;20528;-89
2022/09/16 03:15:52;;;;;;;6.63;1.50;;;14.70;79.20;;;;;;6122220;23;20017;-89
2022/09/16 03:18:31;;;;;;;3.63;1.20;;;14.70;78.60;;;;;;6122314;23;20151;-89
2022/09/16 03:21:09;;;;;;;4.28;1.60;;;14.80;78.40;;;;;;6121311;23;20018;-90
2022/09/16 03:24:08;;;;;;;7.93;1.63;;;14.80;78.50;;;;;;6122266;23;20022;-89
2022/09/16 03:26:39;;;;;;;6.20;1.30;;;14.80;78.70;;;;;;6103330;23;20438;-89
2022/09/16 03:29:14;;;;;;;6.32;1.63;;;14.80;78.50;;;;;;6098101;23;20026;-90
2022/09/16 03:32:06;;;;;;;4.15;1.08;;;14.90;78.50;;;;;;6098135;23;20330;-91
2022/09/16 03:34:39;;;;;;;7.45;1.38;;;14.90;78.70;;;;;;6097327;23;20353;-89
2022/09/16 03:37:08;;;;;;;4.18;1.20;;;14.90;78.40;;;;;;6121660;23;20022;-89
2022/09/16 03:39:35;;;;;;;3.47;1.15;;;15.00;78.30;;;;;;6098287;23;20345;-89
2022/09/16 03:42:08;;;;;;;5.30;1.15;;;15.00;78.20;;;;;;6099089;23;20022;-89
2022/09/16 03:44:35;;;;;;;4.68;1.17;;;14.90;78.10;;;;;;6099435;23;20018;-89
2022/09/16 03:47:02;;;;;;;4.32;1.30;;;15.00;78.10;;;;;;6098820;23;20096;-90
2022/09/16 03:49:29;;;;;;;4.13;1.30;;;14.90;78.00;;;;;;6099582;23;20488;-90
2022/09/16 03:51:55;;;;;;;5.72;1.27;;;14.90;77.80;;;;;;6125506;23;20132;-90
2022/09/16 03:54:21;;;;;;;3.67;1.05;;;15.00;77.80;;;;;;6099508;23;20353;-90
2022/09/16 03:56:46;;;;;;;5.97;1.38;;;14.90;77.70;;;;;;6102126;23;20028;-90
2022/09/16 03:59:12;;;;;;;6.68;1.25;;;14.90;77.50;;;;;;6103744;23;20021;-90
2022/09/16 04:01:38;;;;;;;3.85;1.10;;;15.00;77.50;;;;;;6104414;23;20401;-90
2022/09/16 04:04:03;;;;;;;6.40;1.35;;;14.90;77.40;;;;;;6104531;23;20068;-90
2022/09/16 04:06:29;;;;;;;3.90;0.90;;;14.80;77.30;;;;;;6104431;23;20073;-90
2022/09/16 04:08:59;;;;;;;7.35;1.58;;;14.80;77.30;;;;;;6128777;23;20037;-89
2022/09/16 04:11:28;;;;;;;3.78;1.15;;;14.80;77.30;;;;;;6104709;23;20032;-90
2022/09/16 04:13:54;;;;;;;4.40;1.40;;;14.80;77.30;;;;;;6103820;23;20353;-91
2022/09/16 04:16:20;;;;;;;4.70;1.00;;;14.70;77.30;;;;;;6104174;23;20025;-89
2022/09/16 04:18:47;;;;;;;7.63;1.60;;;14.70;77.40;;;;;;6104250;23;20132;-90
2022/09/16 04:21:13;;;;;;;6.60;1.20;;;14.70;77.60;;;;;;6103749;23;20508;-88
2022/09/16 04:23:39;;;;;;;5.53;1.45;;;14.60;77.60;;;;;;6103839;23;20061;-89
2022/09/16 04:26:05;;;;;;;4.32;1.05;;;14.60;77.70;;;;;;6104018;23;20022;-90
2022/09/16 04:28:31;;;;;;;4.53;1.20;;;14.60;77.80;;;;;;6103911;23;20474;-92
2022/09/16 04:31:11;;;;;;;7.93;1.23;;;14.60;77.80;;;;;;6103632;23;20100;-89
2022/09/16 04:33:37;;;;;;;3.83;1.27;;;14.50;77.90;;;;;;6103428;23;20045;-90
2022/09/16 04:36:11;;;;;;;6.80;1.27;;;14.50;77.90;;;;;;6127936;23;20021;-91
2022/09/16 04:38:38;;;;;;;7.18;1.50;;;14.50;78.10;;;;;;6128529;23;20548;-89
2022/09/16 04:41:07;;;;;;;4.43;1.40;;;14.50;77.90;;;;;;6128258;23;20018;-89
2022/09/16 04:43:33;;;;;;;5.45;1.30;;;14.50;77.90;;;;;;6128189;23;20021;-91
2022/09/16 04:45:59;;;;;;;6.95;1.30;;;14.50;77.90;;;;;;6128722;23;20044;-90
2022/09/16 04:48:25;;;;;;;6.63;1.55;;;14.50;77.90;;;;;;6128685;23;20025;-90
2022/09/16 04:50:51;;;;;;;4.25;1.10;;;14.50;77.70;;;;;;6103417;23;20018;-88
2022/09/16 04:53:18;;;;;;;5.53;1.50;;;14.50;77.70;;;;;;6104368;23;20022;-89
2022/09/16 04:55:44;;;;;;;3.10;1.10;;;14.50;77.60;;;;;;6128777;23;20100;-91
2022/09/16 04:58:10;;;;;;;2.67;1.20;;;14.40;77.50;;;;;;6128189;23;20060;-90
2022/09/16 05:00:36;;;;;;;6.07;2.10;;;14.40;77.40;;;;;;6104121;23;20046;-93
2022/09/16 05:03:02;;;;;;;6.00;1.38;;;14.40;77.30;;;;;;6128120;23;20017;-91
2022/09/16 05:05:28;;;;;;;6.63;1.30;;;14.40;77.20;;;;;;6103945;23;20017;-91
2022/09/16 05:07:53;;;;;;;3.08;1.30;;;14.40;77.20;;;;;;6103815;23;20017;-90
2022/09/16 05:10:19;;;;;;;4.70;1.30;;;14.30;77.00;;;;;;6104433;23;20017;-91
2022/09/16 05:12:50;;;;;;;4.40;1.30;;;14.30;77.00;;;;;;6128491;23;20020;-91
2022/09/16 05:15:15;;;;;;;4.80;1.20;;;14.30;77.00;;;;;;6103730;23;20032;-91
2022/09/16 05:17:41;;;;;;;4.28;1.38;;;14.30;76.90;;;;;;6127886;23;20017;-90
2022/09/16 05:20:07;;;;;;;4.32;1.25;;;14.20;76.80;;;;;;6128000;23;20017;-90
2022/09/16 05:22:32;;;;;;;5.85;1.10;;;14.20;76.80;;;;;;6127731;23;20468;-90
2022/09/16 05:24:58;;;;;;;5.38;1.77;;;14.20;76.90;;;;;;6103297;23;20025;-90
2022/09/16 05:27:26;;;;;;;5.70;1.33;;;14.10;76.80;;;;;;6127961;23;20014;-89
2022/09/16 05:29:52;;;;;;;7.80;1.23;;;14.10;76.90;;;;;;6127716;23;20017;-89
2022/09/16 05:32:18;;;;;;;4.78;1.33;;;14.10;77.00;;;;;;6127523;23;20024;-89
2022/09/16 05:34:43;;;;;;;7.22;1.33;;;14.00;77.00;;;;;;6103584;23;20032;-89
2022/09/16 05:37:09;;;;;;;7.18;1.42;;;14.00;77.00;;;;;;6127380;23;20495;-90
2022/09/16 05:39:34;;;;;;;6.20;1.27;;;14.00;77.00;;;;;;6127202;23;20068;-90
2022/09/16 05:42:00;;;;;;;3.47;1.02;;;14.10;77.00;;;;;;6128307;23;20452;-90
2022/09/16 05:44:27;;;;;;;4.72;1.38;;;14.10;77.00;;;;;;6128116;23;20338;-90
2022/09/16 05:46:53;;;;;;;4.65;1.23;;;14.10;76.90;;;;;;6103254;23;20013;-90
2022/09/16 05:49:20;;;;;;;5.80;1.38;;;14.10;76.80;;;;;;6103875;23;20084;-93
2022/09/16 05:51:47;;;;;;;5.95;1.40;;;14.20;76.80;;;;;;6102912;23;20013;-92
2022/09/16 05:54:13;;;;;;;5.13;1.35;;;14.20;76.70;;;;;;6104106;23;20033;-90
2022/09/16 05:56:38;;;;;;;5.38;1.48;;;14.20;76.60;;;;;;6128085;23;20025;-89
2022/09/16 05:59:04;;;;;;;9.85;1.35;;;14.20;76.60;;;;;;6103411;23;20025;-91
2022/09/16 06:01:33;;;;;;;5.97;1.80;;;14.10;76.50;;;;;;6127512;23;20010;-91
2022/09/16 06:04:01;;;;;;;6.70;1.45;;;14.10;76.60;;;;;;6102416;23;20021;-91
2022/09/16 06:06:36;;;;;;;6.15;1.40;;;14.10;76.80;;;;;;6103732;23;20356;-90
2022/09/16 06:09:08;;;;;;;4.68;1.45;;;14.10;76.90;;;;;;6128377;23;20104;-90
2022/09/16 06:11:40;;;;;;;5.03;1.70;;;14.20;76.90;;;;;;6127583;23;20029;-90
2022/09/16 06:14:06;;;;;;;7.93;1.50;;;14.30;76.90;;;;;;6128228;23;20044;-92
2022/09/16 06:16:32;;;;;;;7.18;1.88;;;14.40;76.80;;;;;;6128295;23;20504;-91
2022/09/16 06:19:05;;;;;;;6.18;2.08;;;14.50;76.60;;;;;;6103401;23;20275;-92
2022/09/16 06:21:30;;;;;;;5.30;1.58;;;14.50;76.60;;;;;;6103791;23;20021;-92
2022/09/16 06:23:56;;;;;;;7.85;1.52;;;14.70;76.50;;;;;;6103802;23;20367;-92
2022/09/16 06:26:24;;;;;;;5.00;1.35;;;14.70;76.30;;;;;;6127917;23;20017;-91
2022/09/16 06:28:51;;;;;;;5.13;1.15;;;14.70;76.20;;;;;;6128988;23;20029;-92
2022/09/16 06:31:27;;;;;;;5.00;1.20;;;14.80;76.20;;;;;;6128482;23;20096;-91
2022/09/16 06:33:54;;;;;;;7.22;1.40;;;14.70;76.20;;;;;;6128533;23;20055;-93
2022/09/16 06:36:22;;;;;;;7.38;1.70;;;14.80;76.00;;;;;;6128557;23;20030;-90
2022/09/16 06:38:50;;;;;;;3.90;1.52;;;14.80;76.00;;;;;;6103524;23;20073;-89
2022/09/16 06:41:18;;;;;;;7.03;1.30;;;14.90;76.10;;;;;;6103771;23;20101;-91
2022/09/16 06:43:43;;;;;;;6.32;1.60;;;14.90;76.10;;;;;;6129760;23;20028;-92
2022/09/16 06:46:15;;;;;;;3.97;1.20;;;15.00;76.00;;;;;;6104223;23;20025;-93
2022/09/16 06:48:43;;;;;;;5.55;1.58;;;15.00;76.00;;;;;;6128385;23;20044;-92
2022/09/16 06:51:11;;;;;;;9.00;2.20;;;15.10;75.80;;;;;;6103969;23;20021;-92
2022/09/16 06:53:40;;;;;;;7.10;2.00;;;15.10;75.80;;;;;;6105716;23;20024;-91
2022/09/16 06:56:11;;;;;;;6.07;1.60;;;15.20;75.70;;;;;;6104058;23;20018;-92
2022/09/16 06:58:38;;;;;;;7.30;1.70;;;15.30;75.60;;;;;;6103567;23;20047;-91
2022/09/16 07:01:13;;;;;;;6.63;1.60;;;15.40;75.60;;;;;;6104791;23;20021;-92
2022/09/16 07:03:41;;;;;;;7.78;1.92;;;15.40;75.40;;;;;;6104108;23;20049;-92
2022/09/16 07:06:08;;;;;;;10.45;1.70;;;15.50;75.10;;;;;;6103949;23;20029;-93
2022/09/16 07:08:35;;;;;;;6.40;1.40;;;15.60;75.00;;;;;;6105051;23;20100;-91
2022/09/16 07:11:05;;;;;;;7.95;1.55;;;15.60;74.80;;;;;;6104985;23;20044;-90
2022/09/16 07:13:31;;;;;;;8.98;1.38;;;15.70;74.70;;;;;;6104464;23;20044;-94
2022/09/16 07:16:05;;;;;;;7.25;1.55;;;15.70;74.60;;;;;;6130421;23;20022;-91
2022/09/16 07:18:31;;;;;;;5.07;1.88;;;15.70;74.60;;;;;;6130454;23;20346;-91
2022/09/16 07:21:04;;;;;;;6.40;1.48;;;15.90;74.60;;;;;;6131108;23;20013;-92
2022/09/16 07:23:31;;;;;;;8.90;1.92;;;15.90;74.50;;;;;;6105421;23;20112;-92
2022/09/16 07:26:09;;;;;;;8.68;1.52;;;16.00;74.20;;;;;;6107588;23;20060;-93
2022/09/16 07:28:36;;;;;;;9.85;1.67;;;16.00;74.30;;;;;;6106899;23;20021;-91
2022/09/16 07:31:13;;;;;;;9.57;1.70;;;16.20;73.90;;;;;;6131693;23;20013;-92
2022/09/16 07:33:44;;;;;;;7.68;1.65;;;16.20;73.70;;;;;;6105985;23;20169;-91
2022/09/16 07:36:13;;;;;;;10.75;1.95;;;16.30;73.70;;;;;;6106013;23;20022;-93
2022/09/16 07:38:39;;;;;;;8.75;1.77;;;16.40;73.60;;;;;;6105883;23;20417;-94
2022/09/16 07:41:08;;;;;;;8.20;1.80;;;16.50;73.50;;;;;;6106023;23;20052;-94
2022/09/16 07:43:34;;;;;;;13.30;1.70;;;16.60;73.40;;;;;;6131343;23;20072;-93
2022/09/16 07:46:00;;;;;;;6.18;1.70;;;16.80;73.50;;;;;;6107494;23;20448;-92
2022/09/16 07:48:29;;;;;;;9.10;1.98;;;16.80;72.50;;;;;;6131632;23;20021;-92
2022/09/16 07:51:00;;;;;;;6.18;1.23;;;16.80;72.20;;;;;;6106744;23;20432;-93
2022/09/16 07:53:28;;;;;;;11.23;1.77;;;16.90;72.10;;;;;;6105914;23;20021;-92
2022/09/16 07:56:08;;;;;;;7.95;1.75;;;17.00;72.00;;;;;;6105361;23;20100;-92
2022/09/16 07:58:34;;;;;;;8.13;1.48;;;17.10;72.00;;;;;;6106018;23;20551;-93
2022/09/16 08:01:01;;;;;;;9.10;1.70;;;17.30;71.50;;;;;;6106267;23;20020;-90
2022/09/16 08:03:27;;;;;;;8.32;1.58;;;17.40;71.50;;;;;;6130782;23;20021;-93
2022/09/16 08:06:02;;;;;;;8.38;1.77;;;17.40;71.00;;;;;;6106967;23;20104;-93
2022/09/16 08:08:28;;;;;;;9.35;1.92;;;17.40;70.70;;;;;;6106347;23;20096;-92
2022/09/16 08:10:59;;;;;;;10.88;2.30;;;17.70;70.10;;;;;;6106282;23;20014;-92
2022/09/16 08:13:25;;;;;;;7.50;1.83;;;17.70;69.80;;;;;;6105946;23;20017;-94
2022/09/16 08:15:53;;;;;;;8.30;2.13;;;17.90;69.60;;;;;;6130155;23;20033;-93
2022/09/16 08:18:19;;;;;;;8.20;1.73;;;17.90;69.30;;;;;;6107549;23;20021;-94
2022/09/16 08:20:44;;;;;;;11.60;1.80;;;18.00;69.20;;;;;;6106501;23;20013;-93
2022/09/16 08:23:14;;;;;;;9.10;1.77;;;18.10;68.90;;;;;;6108034;23;20030;-96
2022/09/16 08:25:42;;;;;;;10.68;1.88;;;18.10;68.40;;;;;;6109647;23;20460;-94
2022/09/16 08:28:13;;;;;;;6.43;1.75;;;18.20;69.00;;;;;;6112710;23;20022;-96
2022/09/16 08:30:39;;;;;;;8.27;1.80;;;18.20;67.50;;;;;;6109579;23;20084;-92
2022/09/16 08:33:05;;;;;;;8.27;1.80;;;18.20;67.00;;;;;;6133371;23;20099;-96
2022/09/16 08:35:30;;;;;;;10.57;1.58;;;18.30;66.90;;;;;;6129777;23;20048;-95
2022/09/16 08:37:56;;;;;;;8.73;1.77;;;18.30;67.50;;;;;;6109240;23;20064;-95
2022/09/16 08:40:32;;;;;;;7.78;1.85;;;18.40;67.20;;;;;;6109695;23;20045;-91
2022/09/16 08:43:35;;;;;;;11.18;1.92;;;18.50;66.90;;;;;;6107959;23;20048;-94
2022/09/16 08:46:18;;;;;;;13.25;2.22;;;18.50;67.40;;;;;;6110855;23;20099;-94
2022/09/16 08:49:14;;;;;;;11.35;2.03;;;18.60;66.30;;;;;;6112668;23;20353;-96
2022/09/16 08:51:46;;;;;;;9.80;1.88;;;18.40;66.40;;;;;;6108160;23;20504;-96
2022/09/16 08:54:24;;;;;;;8.27;1.73;;;18.60;66.50;;;;;;6110131;23;20052;-95
2022/09/16 08:56:50;;;;;;;11.23;2.67;;;18.70;65.90;;;;;;6107839;23;20025;-91
2022/09/16 08:59:22;;;;;;;14.25;2.20;;;18.90;65.30;;;;;;6081358;23;20400;-90
2022/09/16 09:01:56;;;;;;;7.93;1.70;;;18.90;65.50;;;;;;6104427;23;20096;-91
2022/09/16 09:04:25;;;;;;;11.07;2.03;;;19.10;65.60;;;;;;6108075;23;20723;-93
2022/09/16 09:06:58;;;;;;;8.98;1.77;;;19.20;64.90;;;;;;6112054;23;20533;-96
2022/09/16 09:09:30;;;;;;;7.32;1.63;;;19.00;64.60;;;;;;6111636;23;20028;-96
2022/09/16 09:12:13;;;;;;;11.50;1.88;;;19.10;64.70;;;;;;6114276;23;20072;-95
2022/09/16 09:14:57;;;;;;;10.27;1.95;;;19.20;63.90;;;;;;6138168;23;20017;-96
2022/09/16 09:17:48;;;;;;;7.43;1.52;;;19.20;63.30;;;;;;6112548;23;20354;-94
2022/09/16 09:20:29;;;;;;;11.75;2.67;;;19.20;63.60;;;;;;6113418;23;20013;-94
2022/09/16 09:23:15;;;;;;;12.43;2.42;;;19.40;62.60;;;;;;6108568;23;20021;-96
2022/09/16 09:25:54;;;;;;;6.70;1.92;;;19.40;62.60;;;;;;6114085;23;20021;-93
2022/09/16 09:28:52;;;;;;;10.38;1.98;;;19.60;62.30;;;;;;6109000;23;20100;-92
2022/09/16 09:31:30;;;;;;;10.60;2.17;;;19.60;61.60;;;;;;6107149;23;20014;-95
2022/09/16 09:34:25;;;;;;;7.25;2.00;;;19.60;59.20;;;;;;6105413;23;20076;-95
2022/09/16 09:37:29;;;;;;;8.05;1.75;;;19.60;59.50;;;;;;6105589;23;20032;-94
2022/09/16 09:40:05;;;;;;;;;;;19.60;59.70;;;;;;6106862;23;20044;-96
2022/09/16 09:42:54;;;;;;;11.27;1.98;;;20.00;60.40;;;;;;6106022;23;20252;-93
2022/09/16 09:45:30;;;;;;;5.97;1.73;;;19.90;59.10;;;;;;6107085;23;20025;-94
2022/09/16 09:48:41;;;;;;;9.73;1.92;;;20.00;59.30;;;;;;6106047;23;20021;-93
2022/09/16 09:51:31;;;;;;;10.07;1.88;;;20.10;59.00;;;;;;6087900;23;20028;-96
2022/09/16 09:54:05;;;;;;;7.70;1.73;;;20.00;57.90;;;;;;6106158;23;20449;-94
2022/09/16 09:56:44;;;;;;;12.55;1.90;;;19.80;57.20;;;;;;6129856;23;20523;-91
2022/09/16 09:59:30;;;;;;;9.20;1.83;;;19.70;56.70;;;;;;6078066;23;20026;-94
2022/09/16 10:02:01;;;;;;;8.48;1.60;;;19.50;55.50;;;;;;6079304;23;20014;-96
2022/09/16 10:04:55;;;;;;;9.23;1.73;;;19.60;55.80;;;;;;6078146;23;20101;-94
2022/09/16 10:07:23;;;;;;;12.40;1.67;;;19.70;56.80;;;;;;6074905;23;20100;-94
2022/09/16 10:10:11;;;;;;;8.32;1.75;;;20.00;55.30;;;;;;6080671;23;20022;-94
2022/09/16 10:12:37;;;;;;;9.88;2.42;;;20.10;54.90;;;;;;6077343;23;20050;-96
2022/09/16 10:15:03;;;;;;;8.25;1.95;;;20.30;53.70;;;;;;6077594;23;20350;-95
2022/09/16 10:17:31;;;;;;;10.73;1.85;;;20.50;54.40;;;;;;6077561;23;20024;-95
2022/09/16 10:20:00;;;;;;;6.80;1.30;;;20.70;54.20;;;;;;6075940;23;20085;-95
2022/09/16 10:22:28;;;;;;;9.52;1.80;;;20.80;52.60;;;;;;6076463;23;20488;-94
2022/09/16 10:25:05;;;;;;;7.57;1.65;;;21.00;52.70;;;;;;6076003;23;20018;-95
2022/09/16 10:27:36;;;;;;;8.88;1.92;;;20.70;52.90;;;;;;6076018;23;20098;-94
2022/09/16 10:30:14;;;;;;;8.95;2.00;;;20.40;53.50;;;;;;6076611;23;20029;-93
2022/09/16 10:33:11;;;;;;;6.72;1.70;;;20.10;53.40;;;;;;6076173;23;20025;-93
2022/09/16 10:35:40;;;;;;;7.35;1.70;;;19.80;54.10;;;;;;6076627;23;20053;-96
2022/09/16 10:38:20;;;;;;;6.18;1.35;;;20.10;53.50;;;;;;6077372;23;20110;-96
2022/09/16 10:41:06;;;;;;;7.75;1.95;;;20.30;53.90;;;;;;6076785;23;20014;-93
2022/09/16 10:43:31;;;;;;;6.72;1.58;;;20.50;54.20;;;;;;6077162;23;20061;-93
2022/09/16 10:46:00;;;;;;;8.63;1.58;;;21.00;53.10;;;;;;6078043;23;20458;-94
2022/09/16 10:48:29;;;;;;;7.55;1.50;;;21.20;52.60;;;;;;6075463;23;20477;-94
2022/09/16 10:51:01;;;;;;;10.85;2.03;;;21.20;51.30;;;;;;6076923;23;20077;-91
2022/09/16 10:53:39;;;;;;;9.80;1.88;;;20.70;54.10;;;;;;6101306;23;20029;-93
2022/09/16 10:56:29;;;;;;;8.90;2.03;;;19.70;56.60;;;;;;6077825;23;20045;-95
2022/09/16 10:59:08;;;;;;;6.30;1.58;;;18.80;58.80;;;;;;6084360;23;20066;-94
2022/09/16 11:02:13;;;;;;;8.52;2.10;;;18.50;60.10;;;;;;6101904;23;20018;-92
2022/09/16 11:05:08;;;;;;;10.48;1.88;;;18.40;60.30;;;;;;6102345;23;20528;-96
2022/09/16 11:07:56;;;;;;;11.52;1.85;;;18.50;60.60;;;;;;6092735;23;20021;-95
2022/09/16 11:11:09;;;;;;;10.32;1.92;;;19.00;59.30;;;;;;6102599;23;20073;-93
2022/09/16 11:13:59;;;;;;;10.27;1.77;;;19.50;58.20;;;;;;6078880;23;20025;-95
2022/09/16 11:16:25;;;;;;;5.60;1.40;;;19.90;57.00;;;;;;6101684;23;20101;-94
2022/09/16 11:19:10;;;;;;;7.32;1.45;;;20.30;55.70;;;;;;6105724;23;20310;-95
2022/09/16 11:22:12;;;;;;;6.00;1.25;;;20.40;55.10;;;;;;6100564;23;20014;-92
2022/09/16 11:24:52;;;;;;;5.35;1.50;;;20.70;53.40;;;;;;6101436;23;20116;-91
2022/09/16 11:27:44;;;;;;;9.02;1.52;;;20.80;53.30;;;;;;6125330;23;20029;-92
2022/09/16 11:30:12;;;;;;;7.60;1.48;;;20.80;53.00;;;;;;6124843;23;20068;-94
2022/09/16 11:33:08;;;;;;;9.20;1.75;;;20.80;53.90;;;;;;6101262;23;20100;-94
2022/09/16 11:35:55;;;;;;;7.38;1.70;;;20.80;53.30;;;;;;6101409;23;20441;-92
2022/09/16 11:38:47;;;;;;;7.47;1.88;;;21.00;53.10;;;;;;6101614;23;20105;-94
2022/09/16 11:41:50;;;;;;;7.38;1.90;;;21.10;51.70;;;;;;6102138;23;20018;-93
2022/09/16 11:44:40;;;;;;;14.65;1.80;;;21.10;52.30;;;;;;6071083;23;20018;-92
2022/09/16 11:47:40;;;;;;;8.05;1.80;;;21.20;50.30;;;;;;6101207;23;20018;-95
2022/09/16 11:50:23;;;;;;;4.93;1.40;;;21.20;50.50;;;;;;6101519;23;20029;-94
2022/09/16 11:53:34;;;;;;;5.30;1.38;;;21.20;50.10;;;;;;6103488;23;20045;-93
2022/09/16 11:56:24;;;;;;;8.27;1.35;;;21.00;50.50;;;;;;6136264;23;20028;-90
2022/09/16 11:58:54;;;;;;;7.03;1.60;;;20.80;50.30;;;;;;6114391;23;20025;-93
2022/09/16 12:01:23;;;;;;;5.03;1.45;;;20.00;54.60;;;;;;6110839;23;20358;-93
2022/09/16 12:03:59;;;;;;;4.03;1.23;;;18.50;59.00;;;;;;6112861;23;20065;-95
2022/09/16 12:06:41;;;;;;;5.95;1.40;;;17.50;62.00;;;;;;6113429;23;20018;-94
2022/09/16 12:09:12;;;;;;;4.45;1.05;;;16.80;64.30;;;;;;6121251;23;20022;-94
2022/09/16 12:11:45;;;;;;;6.45;1.40;;;16.60;66.10;;;;;;6104348;23;20033;-96
2022/09/16 12:14:40;;;;;;;;;;;;;;;;;;;;;
2022/09/16 12:17:23;;;;;;;8.80;1.50;;;17.10;68.20;;;;;;6125465;23;20018;-95
2022/09/16 12:20:04;;;;;;;6.60;1.60;;;17.60;66.50;;;;;;6102397;23;20030;-96
2022/09/16 12:23:10;;;;;;;7.50;1.60;;;17.70;65.40;;;;;;6102511;23;20021;-96
2022/09/16 12:26:04;;;;;;;7.88;1.45;;;17.70;65.40;;;;;;6104206;23;20073;-95
2022/09/16 12:28:51;;;;;;;6.28;1.40;;;17.80;65.90;;;;;;6102172;23;20446;-94
2022/09/16 12:31:42;;;;;;;9.05;1.60;;;18.00;65.80;;;;;;6103370;23;20041;-95
2022/09/16 12:34:38;;;;;;;7.68;1.67;;;18.30;65.10;;;;;;6107320;23;20033;-96
2022/09/16 12:41:12;;;;;;;7.95;1.80;;;19.10;63.80;;;;;;6101436;23;20045;-96
2022/09/16 12:43:58;;;;;;;7.80;1.58;;;19.60;62.60;;;;;;6107644;23;20052;-96
2022/09/16 12:46:33;;;;;;;7.25;1.50;;;20.00;61.10;;;;;;6103033;23;20481;-95
2022/09/16 12:49:33;;;;;;;7.40;1.92;;;20.30;60.40;;;;;;6104677;23;20033;-94
2022/09/16 12:52:37;;;;;;;9.15;1.92;;;20.40;58.50;;;;;;6078923;23;20018;-95
2022/09/16 12:55:31;;;;;;;11.38;1.88;;;20.60;58.80;;;;;;5933374;24;20016;-94
2022/09/16 12:58:11;;;;;;;;;;;20.70;56.20;;;;;;5946212;24;20099;-96
2022/09/16 13:00:57;;;;;;;10.30;1.88;;;20.80;55.70;;;;;;6048279;23;19921;-95
2022/09/16 13:03:30;;;;;;;7.75;2.30;;;20.30;55.20;;;;;;6018227;23;20022;-92
2022/09/16 13:06:06;;;;;;;13.32;2.03;;;20.10;55.10;;;;;;6041447;23;20019;-92
2022/09/16 13:08:37;;;;;;;9.43;2.03;;;19.80;55.40;;;;;;6042439;23;20078;-94
2022/09/16 13:11:16;;;;;;;9.52;2.13;;;19.70;55.50;;;;;;6018777;23;20015;-96
2022/09/16 13:13:47;;;;;;;10.73;2.22;;;19.70;56.10;;;;;;6042722;23;20474;-94
2022/09/16 13:16:38;;;;;;;9.20;2.30;;;19.90;55.80;;;;;;6041957;23;20022;-96
2022/09/16 13:19:26;;;;;;;13.48;3.10;;;19.90;55.50;;;;;;6018009;23;20023;-90
2022/09/16 13:22:07;;;;;;;9.30;2.28;;;20.00;55.00;;;;;;6019925;23;20113;-96
2022/09/16 13:24:58;;;;;;;10.32;2.80;;;20.10;54.50;;;;;;6080885;23;20022;-94
2022/09/16 13:27:30;;;;;;;14.70;2.20;;;20.20;55.70;;;;;;6077721;23;20049;-93
2022/09/16 13:30:08;;;;;;;11.63;2.63;;;20.50;55.20;;;;;;6083031;23;20025;-96
2022/09/16 13:32:51;;;;;;;13.63;2.22;;;20.50;55.50;;;;;;6081623;23;20037;-94
2022/09/16 13:35:48;;;;;;;14.50;2.63;;;20.60;55.70;;;;;;6077955;23;20018;-92